sensor_id;sensor_type;location;lat;lon;timestamp;temperature;humidity
19172;DHT22;9718;52.200;21.052;2022-10-30T00:01:23;12.80;99.90
19172;DHT22;9718;52.200;21.052;2022-10-30T00:03:50;12.80;99.90
19172;DHT22;9718;52.200;21.052;2022-10-30T00:06:18;12.90;99.90
19172;DHT22;9718;52.200;21.052;2022-10-30T00:08:45;12.90;99.90
19172;DHT22;9718;52.200;21.052;2022-10-30T00:11:12;13.00;99.90
19172;DHT22;9718;52.200;21.052;2022-10-30T00:13:44;13.00;99.90
19172;DHT22;9718;52.200;21.052;2022-10-30T00:16:11;13.00;99.90
19172;DHT22;9718;52.200;21.052;2022-10-30T00:18:38;13.00;99.90
19172;DHT22;9718;52.200;21.052;2022-10-30T00:21:11;13.00;99.90
19172;DHT22;9718;52.200;21.052;2022-10-30T00:23:43;13.00;99.90
19172;DHT22;9718;52.200;21.052;2022-10-30T00:26:11;13.00;99.90
19172;DHT22;9718;52.200;21.052;2022-10-30T00:28:37;12.90;99.90
19172;DHT22;9718;52.200;21.052;2022-10-30T00:31:05;13.00;99.90
19172;DHT22;9718;52.200;21.052;2022-10-30T00:33:32;12.90;99.90
19172;DHT22;9718;52.200;21.052;2022-10-30T00:35:59;12.90;99.90
19172;DHT22;9718;52.200;21.052;2022-10-30T00:38:26;12.90;99.90
19172;DHT22;9718;52.200;21.052;2022-10-30T00:40:54;12.90;99.90
19172;DHT22;9718;52.200;21.052;2022-10-30T00:46:24;12.90;99.90
19172;DHT22;9718;52.200;21.052;2022-10-30T00:49:02;12.90;99.90
19172;DHT22;9718;52.200;21.052;2022-10-30T00:51:31;13.00;99.90
19172;DHT22;9718;52.200;21.052;2022-10-30T00:54:00;12.90;99.90
19172;DHT22;9718;52.200;21.052;2022-10-30T00:56:28;12.80;99.90
19172;DHT22;9718;52.200;21.052;2022-10-30T00:58:58;12.80;99.90
19172;DHT22;9718;52.200;21.052;2022-10-30T01:01:28;12.80;99.90
19172;DHT22;9718;52.200;21.052;2022-10-30T01:03:59;12.80;99.90
19172;DHT22;9718;52.200;21.052;2022-10-30T01:06:28;12.80;99.90
19172;DHT22;9718;52.200;21.052;2022-10-30T01:08:57;12.80;99.90
19172;DHT22;9718;52.200;21.052;2022-10-30T01:11:26;12.80;99.90
19172;DHT22;9718;52.200;21.052;2022-10-30T01:13:56;12.80;99.90
19172;DHT22;9718;52.200;21.052;2022-10-30T01:19:13;12.90;99.90
19172;DHT22;9718;52.200;21.052;2022-10-30T01:24:51;12.90;99.90
19172;DHT22;9718;52.200;21.052;2022-10-30T01:27:43;12.90;99.90
19172;DHT22;9718;52.200;21.052;2022-10-30T01:36:03;13.10;99.90
19172;DHT22;9718;52.200;21.052;2022-10-30T01:38:50;13.20;99.90
19172;DHT22;9718;52.200;21.052;2022-10-30T01:41:18;13.20;99.90
19172;DHT22;9718;52.200;21.052;2022-10-30T01:43:47;13.10;99.90
19172;DHT22;9718;52.200;21.052;2022-10-30T01:49:15;13.00;99.90
19172;DHT22;9718;52.200;21.052;2022-10-30T01:54:57;12.90;99.90
19172;DHT22;9718;52.200;21.052;2022-10-30T01:57:41;12.90;99.90
19172;DHT22;9718;52.200;21.052;2022-10-30T02:00:13;12.90;99.90
19172;DHT22;9718;52.200;21.052;2022-10-30T02:02:41;12.80;99.90
19172;DHT22;9718;52.200;21.052;2022-10-30T02:05:12;12.80;99.90
19172;DHT22;9718;52.200;21.052;2022-10-30T02:07:40;12.80;99.90
19172;DHT22;9718;52.200;21.052;2022-10-30T02:10:09;12.80;99.90
19172;DHT22;9718;52.200;21.052;2022-10-30T02:12:36;12.80;99.90
19172;DHT22;9718;52.200;21.052;2022-10-30T02:15:04;12.80;99.90
19172;DHT22;9718;52.200;21.052;2022-10-30T02:17:31;12.90;99.90
19172;DHT22;9718;52.200;21.052;2022-10-30T02:19:58;12.90;99.90
19172;DHT22;9718;52.200;21.052;2022-10-30T02:22:25;13.00;99.90
19172;DHT22;9718;52.200;21.052;2022-10-30T02:24:53;13.00;99.90
19172;DHT22;9718;52.200;21.052;2022-10-30T02:27:20;13.00;99.90
19172;DHT22;9718;52.200;21.052;2022-10-30T02:29:48;13.00;99.90
19172;DHT22;9718;52.200;21.052;2022-10-30T02:32:15;12.90;99.90
19172;DHT22;9718;52.200;21.052;2022-10-30T02:34:41;12.90;99.90
19172;DHT22;9718;52.200;21.052;2022-10-30T02:37:10;12.90;99.90
19172;DHT22;9718;52.200;21.052;2022-10-30T02:39:40;13.00;99.90
19172;DHT22;9718;52.200;21.052;2022-10-30T02:42:07;13.00;99.90
19172;DHT22;9718;52.200;21.052;2022-10-30T02:44:34;13.00;99.90
19172;DHT22;9718;52.200;21.052;2022-10-30T02:47:01;13.00;99.90
19172;DHT22;9718;52.200;21.052;2022-10-30T02:49:28;13.10;99.90
19172;DHT22;9718;52.200;21.052;2022-10-30T02:51:55;13.10;99.90
19172;DHT22;9718;52.200;21.052;2022-10-30T02:54:22;13.00;99.90
19172;DHT22;9718;52.200;21.052;2022-10-30T02:56:49;13.00;99.90
19172;DHT22;9718;52.200;21.052;2022-10-30T02:59:16;12.90;99.90
19172;DHT22;9718;52.200;21.052;2022-10-30T03:01:43;12.90;99.90
19172;DHT22;9718;52.200;21.052;2022-10-30T03:04:10;12.90;99.90
19172;DHT22;9718;52.200;21.052;2022-10-30T03:06:37;12.90;99.90
19172;DHT22;9718;52.200;21.052;2022-10-30T03:09:04;13.00;99.90
19172;DHT22;9718;52.200;21.052;2022-10-30T03:11:33;13.00;99.90
19172;DHT22;9718;52.200;21.052;2022-10-30T03:14:00;13.10;99.90
19172;DHT22;9718;52.200;21.052;2022-10-30T03:16:28;13.20;99.90
19172;DHT22;9718;52.200;21.052;2022-10-30T03:19:13;13.20;99.90
19172;DHT22;9718;52.200;21.052;2022-10-30T03:21:41;13.10;99.90
19172;DHT22;9718;52.200;21.052;2022-10-30T03:24:08;13.10;99.90
19172;DHT22;9718;52.200;21.052;2022-10-30T03:26:35;13.00;99.90
19172;DHT22;9718;52.200;21.052;2022-10-30T03:29:03;13.00;99.90
19172;DHT22;9718;52.200;21.052;2022-10-30T03:31:30;13.00;99.90
19172;DHT22;9718;52.200;21.052;2022-10-30T03:33:58;13.10;99.90
19172;DHT22;9718;52.200;21.052;2022-10-30T03:36:26;13.10;99.90
19172;DHT22;9718;52.200;21.052;2022-10-30T03:38:53;13.10;99.90
19172;DHT22;9718;52.200;21.052;2022-10-30T03:41:20;13.10;99.90
19172;DHT22;9718;52.200;21.052;2022-10-30T03:43:47;13.10;99.90
19172;DHT22;9718;52.200;21.052;2022-10-30T03:46:14;13.00;99.90
19172;DHT22;9718;52.200;21.052;2022-10-30T03:48:41;13.00;99.90
19172;DHT22;9718;52.200;21.052;2022-10-30T03:51:08;13.00;99.90
19172;DHT22;9718;52.200;21.052;2022-10-30T03:53:35;13.00;99.90
19172;DHT22;9718;52.200;21.052;2022-10-30T03:56:03;12.90;99.90
19172;DHT22;9718;52.200;21.052;2022-10-30T03:58:30;12.90;99.90
19172;DHT22;9718;52.200;21.052;2022-10-30T04:01:02;12.80;99.90
19172;DHT22;9718;52.200;21.052;2022-10-30T04:03:29;12.80;99.90
19172;DHT22;9718;52.200;21.052;2022-10-30T04:05:56;12.80;99.90
19172;DHT22;9718;52.200;21.052;2022-10-30T04:08:23;12.90;99.90
19172;DHT22;9718;52.200;21.052;2022-10-30T04:10:50;12.90;99.90
19172;DHT22;9718;52.200;21.052;2022-10-30T04:13:17;12.80;99.90
19172;DHT22;9718;52.200;21.052;2022-10-30T04:15:47;12.80;99.90
19172;DHT22;9718;52.200;21.052;2022-10-30T04:18:24;12.80;99.90
19172;DHT22;9718;52.200;21.052;2022-10-30T04:20:51;12.80;99.90
19172;DHT22;9718;52.200;21.052;2022-10-30T04:23:19;12.80;99.90
19172;DHT22;9718;52.200;21.052;2022-10-30T04:25:47;12.80;99.90
19172;DHT22;9718;52.200;21.052;2022-10-30T04:28:14;12.80;99.90
19172;DHT22;9718;52.200;21.052;2022-10-30T04:30:41;12.70;99.90
19172;DHT22;9718;52.200;21.052;2022-10-30T04:33:10;12.70;99.90
19172;DHT22;9718;52.200;21.052;2022-10-30T04:35:38;12.70;99.90
19172;DHT22;9718;52.200;21.052;2022-10-30T04:38:08;12.70;99.90
19172;DHT22;9718;52.200;21.052;2022-10-30T04:40:38;12.70;99.90
19172;DHT22;9718;52.200;21.052;2022-10-30T04:43:06;12.70;99.90
19172;DHT22;9718;52.200;21.052;2022-10-30T04:45:34;12.70;99.90
19172;DHT22;9718;52.200;21.052;2022-10-30T04:48:06;12.70;99.90
19172;DHT22;9718;52.200;21.052;2022-10-30T04:50:33;12.60;99.90
19172;DHT22;9718;52.200;21.052;2022-10-30T04:53:02;12.60;99.90
19172;DHT22;9718;52.200;21.052;2022-10-30T04:55:30;12.60;99.90
19172;DHT22;9718;52.200;21.052;2022-10-30T04:57:58;12.60;99.90
19172;DHT22;9718;52.200;21.052;2022-10-30T05:00:26;12.60;99.90
19172;DHT22;9718;52.200;21.052;2022-10-30T05:02:54;12.70;99.90
19172;DHT22;9718;52.200;21.052;2022-10-30T05:05:20;12.60;99.90
19172;DHT22;9718;52.200;21.052;2022-10-30T05:07:48;12.60;99.90
19172;DHT22;9718;52.200;21.052;2022-10-30T05:10:15;12.60;99.90
19172;DHT22;9718;52.200;21.052;2022-10-30T05:12:43;12.70;99.90
19172;DHT22;9718;52.200;21.052;2022-10-30T05:15:12;12.70;99.90
19172;DHT22;9718;52.200;21.052;2022-10-30T05:17:40;12.60;99.90
19172;DHT22;9718;52.200;21.052;2022-10-30T05:20:08;12.60;99.90
19172;DHT22;9718;52.200;21.052;2022-10-30T05:22:37;12.60;99.90
19172;DHT22;9718;52.200;21.052;2022-10-30T05:25:05;12.70;99.90
19172;DHT22;9718;52.200;21.052;2022-10-30T05:27:32;12.80;99.90
19172;DHT22;9718;52.200;21.052;2022-10-30T05:29:59;12.80;99.90
19172;DHT22;9718;52.200;21.052;2022-10-30T05:32:26;12.80;99.90
19172;DHT22;9718;52.200;21.052;2022-10-30T05:34:53;12.80;99.90
19172;DHT22;9718;52.200;21.052;2022-10-30T05:37:20;12.70;99.90
19172;DHT22;9718;52.200;21.052;2022-10-30T05:39:47;12.90;99.90
19172;DHT22;9718;52.200;21.052;2022-10-30T05:42:14;12.90;99.90
19172;DHT22;9718;52.200;21.052;2022-10-30T05:44:41;13.00;99.90
19172;DHT22;9718;52.200;21.052;2022-10-30T05:47:28;13.00;99.90
19172;DHT22;9718;52.200;21.052;2022-10-30T05:49:55;13.10;99.90
19172;DHT22;9718;52.200;21.052;2022-10-30T05:52:22;13.00;99.90
19172;DHT22;9718;52.200;21.052;2022-10-30T05:54:49;13.00;99.90
19172;DHT22;9718;52.200;21.052;2022-10-30T05:57:16;12.90;99.90
19172;DHT22;9718;52.200;21.052;2022-10-30T05:59:43;12.90;99.90
19172;DHT22;9718;52.200;21.052;2022-10-30T06:02:10;13.00;99.90
19172;DHT22;9718;52.200;21.052;2022-10-30T06:04:37;13.00;99.90
19172;DHT22;9718;52.200;21.052;2022-10-30T06:07:08;12.90;99.90
19172;DHT22;9718;52.200;21.052;2022-10-30T06:09:35;12.90;99.90
19172;DHT22;9718;52.200;21.052;2022-10-30T06:12:02;13.00;99.90
19172;DHT22;9718;52.200;21.052;2022-10-30T06:14:30;13.00;99.90
19172;DHT22;9718;52.200;21.052;2022-10-30T06:16:57;13.00;99.90
19172;DHT22;9718;52.200;21.052;2022-10-30T06:19:24;13.00;99.90
19172;DHT22;9718;52.200;21.052;2022-10-30T06:21:51;13.00;99.90
19172;DHT22;9718;52.200;21.052;2022-10-30T06:24:18;13.00;99.90
19172;DHT22;9718;52.200;21.052;2022-10-30T06:26:45;13.00;99.90
19172;DHT22;9718;52.200;21.052;2022-10-30T06:29:12;13.10;99.90
19172;DHT22;9718;52.200;21.052;2022-10-30T06:31:39;13.10;99.90
19172;DHT22;9718;52.200;21.052;2022-10-30T06:34:06;13.20;99.90
19172;DHT22;9718;52.200;21.052;2022-10-30T06:36:33;13.30;99.90
19172;DHT22;9718;52.200;21.052;2022-10-30T06:39:00;13.30;99.90
19172;DHT22;9718;52.200;21.052;2022-10-30T06:41:27;13.20;99.90
19172;DHT22;9718;52.200;21.052;2022-10-30T06:43:56;13.30;99.90
19172;DHT22;9718;52.200;21.052;2022-10-30T06:46:23;13.50;99.90
19172;DHT22;9718;52.200;21.052;2022-10-30T06:48:56;13.60;99.90
19172;DHT22;9718;52.200;21.052;2022-10-30T06:51:23;13.60;99.90
19172;DHT22;9718;52.200;21.052;2022-10-30T06:53:50;13.60;99.90
19172;DHT22;9718;52.200;21.052;2022-10-30T06:56:17;13.60;99.90
19172;DHT22;9718;52.200;21.052;2022-10-30T06:58:45;13.70;99.90
19172;DHT22;9718;52.200;21.052;2022-10-30T07:01:13;13.80;99.90
19172;DHT22;9718;52.200;21.052;2022-10-30T07:03:41;13.90;99.90
19172;DHT22;9718;52.200;21.052;2022-10-30T07:06:08;14.10;99.90
19172;DHT22;9718;52.200;21.052;2022-10-30T07:08:35;14.20;99.90
19172;DHT22;9718;52.200;21.052;2022-10-30T07:11:02;14.30;99.90
19172;DHT22;9718;52.200;21.052;2022-10-30T07:13:29;14.30;99.90
19172;DHT22;9718;52.200;21.052;2022-10-30T07:15:57;14.40;99.90
19172;DHT22;9718;52.200;21.052;2022-10-30T07:18:25;14.10;99.90
19172;DHT22;9718;52.200;21.052;2022-10-30T07:20:53;14.20;99.90
19172;DHT22;9718;52.200;21.052;2022-10-30T07:23:22;14.10;99.90
19172;DHT22;9718;52.200;21.052;2022-10-30T07:25:49;14.20;99.90
19172;DHT22;9718;52.200;21.052;2022-10-30T07:28:16;14.10;99.90
19172;DHT22;9718;52.200;21.052;2022-10-30T07:30:43;14.20;99.90
19172;DHT22;9718;52.200;21.052;2022-10-30T07:33:10;14.20;99.90
19172;DHT22;9718;52.200;21.052;2022-10-30T07:35:37;14.30;99.90
19172;DHT22;9718;52.200;21.052;2022-10-30T07:38:05;14.40;99.90
19172;DHT22;9718;52.200;21.052;2022-10-30T07:40:33;14.40;99.90
19172;DHT22;9718;52.200;21.052;2022-10-30T07:43:01;14.50;99.90
19172;DHT22;9718;52.200;21.052;2022-10-30T07:45:30;14.50;99.90
19172;DHT22;9718;52.200;21.052;2022-10-30T07:47:57;14.60;99.90
19172;DHT22;9718;52.200;21.052;2022-10-30T07:50:24;14.80;99.90
19172;DHT22;9718;52.200;21.052;2022-10-30T07:52:52;14.60;99.90
19172;DHT22;9718;52.200;21.052;2022-10-30T07:55:20;14.70;99.90
19172;DHT22;9718;52.200;21.052;2022-10-30T07:57:47;14.80;99.90
19172;DHT22;9718;52.200;21.052;2022-10-30T08:00:15;14.70;99.90
19172;DHT22;9718;52.200;21.052;2022-10-30T08:02:42;14.60;99.90
19172;DHT22;9718;52.200;21.052;2022-10-30T08:05:10;14.60;99.90
19172;DHT22;9718;52.200;21.052;2022-10-30T08:07:37;14.70;99.90
19172;DHT22;9718;52.200;21.052;2022-10-30T08:10:06;14.80;99.90
19172;DHT22;9718;52.200;21.052;2022-10-30T08:12:35;14.90;99.90
19172;DHT22;9718;52.200;21.052;2022-10-30T08:15:05;15.00;99.90
19172;DHT22;9718;52.200;21.052;2022-10-30T08:17:32;15.10;99.90
19172;DHT22;9718;52.200;21.052;2022-10-30T08:19:59;15.10;99.90
19172;DHT22;9718;52.200;21.052;2022-10-30T08:22:26;15.00;99.90
19172;DHT22;9718;52.200;21.052;2022-10-30T08:24:53;15.00;99.90
19172;DHT22;9718;52.200;21.052;2022-10-30T08:27:20;15.10;99.90
19172;DHT22;9718;52.200;21.052;2022-10-30T08:29:47;15.20;99.90
19172;DHT22;9718;52.200;21.052;2022-10-30T08:32:14;15.20;99.90
19172;DHT22;9718;52.200;21.052;2022-10-30T08:34:42;15.40;99.90
19172;DHT22;9718;52.200;21.052;2022-10-30T08:37:09;15.40;99.90
19172;DHT22;9718;52.200;21.052;2022-10-30T08:39:37;15.50;99.90
19172;DHT22;9718;52.200;21.052;2022-10-30T08:42:04;15.60;99.90
19172;DHT22;9718;52.200;21.052;2022-10-30T08:44:31;15.60;99.90
19172;DHT22;9718;52.200;21.052;2022-10-30T08:46:58;15.60;99.90
19172;DHT22;9718;52.200;21.052;2022-10-30T08:49:34;15.60;99.90
19172;DHT22;9718;52.200;21.052;2022-10-30T08:52:07;15.60;99.90
19172;DHT22;9718;52.200;21.052;2022-10-30T08:54:34;15.70;99.90
19172;DHT22;9718;52.200;21.052;2022-10-30T08:57:01;15.60;99.90
19172;DHT22;9718;52.200;21.052;2022-10-30T08:59:28;15.40;99.90
19172;DHT22;9718;52.200;21.052;2022-10-30T09:01:55;15.20;99.90
19172;DHT22;9718;52.200;21.052;2022-10-30T09:04:23;15.40;99.90
19172;DHT22;9718;52.200;21.052;2022-10-30T09:06:50;15.50;99.90
19172;DHT22;9718;52.200;21.052;2022-10-30T09:09:17;15.60;99.90
19172;DHT22;9718;52.200;21.052;2022-10-30T09:11:46;15.60;99.90
19172;DHT22;9718;52.200;21.052;2022-10-30T09:14:14;15.40;99.90
19172;DHT22;9718;52.200;21.052;2022-10-30T09:16:41;15.30;99.90
19172;DHT22;9718;52.200;21.052;2022-10-30T09:19:09;15.30;99.90
19172;DHT22;9718;52.200;21.052;2022-10-30T09:21:43;15.40;99.90
19172;DHT22;9718;52.200;21.052;2022-10-30T09:24:13;15.30;99.90
19172;DHT22;9718;52.200;21.052;2022-10-30T09:26:43;15.40;99.90
19172;DHT22;9718;52.200;21.052;2022-10-30T09:29:10;15.30;99.90
19172;DHT22;9718;52.200;21.052;2022-10-30T09:31:37;15.10;99.90
19172;DHT22;9718;52.200;21.052;2022-10-30T09:34:04;15.20;99.90
19172;DHT22;9718;52.200;21.052;2022-10-30T09:36:31;15.20;99.90
19172;DHT22;9718;52.200;21.052;2022-10-30T09:39:01;15.20;99.90
19172;DHT22;9718;52.200;21.052;2022-10-30T09:52:34;15.60;99.90
19172;DHT22;9718;52.200;21.052;2022-10-30T09:55:34;15.60;99.90
19172;DHT22;9718;52.200;21.052;2022-10-30T09:58:20;15.60;99.90
19172;DHT22;9718;52.200;21.052;2022-10-30T10:06:23;15.90;99.90
19172;DHT22;9718;52.200;21.052;2022-10-30T10:09:11;16.00;99.90
19172;DHT22;9718;52.200;21.052;2022-10-30T10:11:42;16.00;99.90
19172;DHT22;9718;52.200;21.052;2022-10-30T10:14:18;16.20;99.90
19172;DHT22;9718;52.200;21.052;2022-10-30T10:16:51;16.40;99.90
19172;DHT22;9718;52.200;21.052;2022-10-30T10:19:59;16.40;99.90
19172;DHT22;9718;52.200;21.052;2022-10-30T10:22:21;16.90;99.90
19172;DHT22;9718;52.200;21.052;2022-10-30T10:24:52;17.40;99.90
19172;DHT22;9718;52.200;21.052;2022-10-30T10:27:40;17.40;99.90
19172;DHT22;9718;52.200;21.052;2022-10-30T10:30:19;17.20;99.90
19172;DHT22;9718;52.200;21.052;2022-10-30T10:38:59;16.80;99.90
19172;DHT22;9718;52.200;21.052;2022-10-30T10:55:33;16.70;99.90
19172;DHT22;9718;52.200;21.052;2022-10-30T11:01:14;16.70;99.90
19172;DHT22;9718;52.200;21.052;2022-10-30T11:03:59;16.70;99.90
19172;DHT22;9718;52.200;21.052;2022-10-30T11:06:34;16.70;99.90
19172;DHT22;9718;52.200;21.052;2022-10-30T11:09:28;16.50;99.90
19172;DHT22;9718;52.200;21.052;2022-10-30T11:12:03;16.50;99.90
19172;DHT22;9718;52.200;21.052;2022-10-30T11:14:30;16.40;99.90
19172;DHT22;9718;52.200;21.052;2022-10-30T11:17:05;16.30;99.90
19172;DHT22;9718;52.200;21.052;2022-10-30T11:19:47;16.60;99.90
19172;DHT22;9718;52.200;21.052;2022-10-30T11:22:32;16.90;99.90
19172;DHT22;9718;52.200;21.052;2022-10-30T11:25:23;17.10;99.90
19172;DHT22;9718;52.200;21.052;2022-10-30T11:28:00;17.40;99.90
19172;DHT22;9718;52.200;21.052;2022-10-30T11:30:29;17.70;99.90
19172;DHT22;9718;52.200;21.052;2022-10-30T11:33:31;18.00;99.90
19172;DHT22;9718;52.200;21.052;2022-10-30T11:36:08;18.30;99.90
19172;DHT22;9718;52.200;21.052;2022-10-30T11:38:41;18.70;99.90
19172;DHT22;9718;52.200;21.052;2022-10-30T11:41:09;19.00;99.90
19172;DHT22;9718;52.200;21.052;2022-10-30T11:43:39;19.00;99.90
19172;DHT22;9718;52.200;21.052;2022-10-30T11:46:10;18.80;99.90
19172;DHT22;9718;52.200;21.052;2022-10-30T11:48:42;18.70;99.90
19172;DHT22;9718;52.200;21.052;2022-10-30T11:51:11;19.10;99.90
19172;DHT22;9718;52.200;21.052;2022-10-30T11:53:47;19.00;99.90
19172;DHT22;9718;52.200;21.052;2022-10-30T11:56:18;18.20;99.90
19172;DHT22;9718;52.200;21.052;2022-10-30T11:58:53;18.10;99.90
19172;DHT22;9718;52.200;21.052;2022-10-30T12:01:26;18.00;99.90
19172;DHT22;9718;52.200;21.052;2022-10-30T12:03:54;18.00;99.90
19172;DHT22;9718;52.200;21.052;2022-10-30T12:09:21;18.30;99.90
19172;DHT22;9718;52.200;21.052;2022-10-30T12:11:49;18.30;99.90
19172;DHT22;9718;52.200;21.052;2022-10-30T12:14:21;18.00;99.90
19172;DHT22;9718;52.200;21.052;2022-10-30T12:16:51;18.40;99.90
19172;DHT22;9718;52.200;21.052;2022-10-30T12:19:20;18.90;99.90
19172;DHT22;9718;52.200;21.052;2022-10-30T12:21:50;18.40;99.90
19172;DHT22;9718;52.200;21.052;2022-10-30T12:24:34;17.30;99.90
19172;DHT22;9718;52.200;21.052;2022-10-30T12:27:04;16.80;99.90
19172;DHT22;9718;52.200;21.052;2022-10-30T12:29:54;17.10;99.90
19172;DHT22;9718;52.200;21.052;2022-10-30T12:33:01;17.20;99.90
19172;DHT22;9718;52.200;21.052;2022-10-30T12:35:43;17.30;99.90
19172;DHT22;9718;52.200;21.052;2022-10-30T12:43:35;16.50;99.90
19172;DHT22;9718;52.200;21.052;2022-10-30T12:46:15;16.50;99.90
19172;DHT22;9718;52.200;21.052;2022-10-30T12:48:53;16.60;99.90
19172;DHT22;9718;52.200;21.052;2022-10-30T12:54:28;16.40;99.90
19172;DHT22;9718;52.200;21.052;2022-10-30T12:57:25;16.30;99.90
19172;DHT22;9718;52.200;21.052;2022-10-30T13:00:00;16.30;99.90
19172;DHT22;9718;52.200;21.052;2022-10-30T13:02:45;16.20;99.90
19172;DHT22;9718;52.200;21.052;2022-10-30T13:05:32;16.00;99.90
19172;DHT22;9718;52.200;21.052;2022-10-30T13:08:25;15.80;99.90
19172;DHT22;9718;52.200;21.052;2022-10-30T13:13:40;15.80;99.90
19172;DHT22;9718;52.200;21.052;2022-10-30T13:16:17;15.90;99.90
19172;DHT22;9718;52.200;21.052;2022-10-30T13:18:44;16.00;99.90
19172;DHT22;9718;52.200;21.052;2022-10-30T13:23:54;16.20;99.90
19172;DHT22;9718;52.200;21.052;2022-10-30T13:26:53;16.20;99.90
19172;DHT22;9718;52.200;21.052;2022-10-30T13:29:30;16.10;99.90
19172;DHT22;9718;52.200;21.052;2022-10-30T13:32:02;16.00;99.90
19172;DHT22;9718;52.200;21.052;2022-10-30T13:37:13;16.20;99.90
19172;DHT22;9718;52.200;21.052;2022-10-30T13:49:34;16.10;99.90
19172;DHT22;9718;52.200;21.052;2022-10-30T13:52:15;15.80;99.90
19172;DHT22;9718;52.200;21.052;2022-10-30T13:57:42;15.70;99.90
19172;DHT22;9718;52.200;21.052;2022-10-30T14:00:26;15.70;99.90
19172;DHT22;9718;52.200;21.052;2022-10-30T14:15:25;15.40;99.90
19172;DHT22;9718;52.200;21.052;2022-10-30T14:20:46;15.50;99.90
19172;DHT22;9718;52.200;21.052;2022-10-30T14:23:35;15.50;99.90
19172;DHT22;9718;52.200;21.052;2022-10-30T14:28:31;15.10;99.90
19172;DHT22;9718;52.200;21.052;2022-10-30T14:31:15;15.00;99.90
19172;DHT22;9718;52.200;21.052;2022-10-30T14:36:46;15.00;99.90
19172;DHT22;9718;52.200;21.052;2022-10-30T14:47:56;14.90;99.90
19172;DHT22;9718;52.200;21.052;2022-10-30T14:56:03;14.70;99.90
19172;DHT22;9718;52.200;21.052;2022-10-30T14:58:36;14.70;99.90
19172;DHT22;9718;52.200;21.052;2022-10-30T15:03:58;14.60;99.90
19172;DHT22;9718;52.200;21.052;2022-10-30T15:06:54;14.60;99.90
19172;DHT22;9718;52.200;21.052;2022-10-30T15:15:16;14.50;99.90
19172;DHT22;9718;52.200;21.052;2022-10-30T15:18:10;14.40;99.90
19172;DHT22;9718;52.200;21.052;2022-10-30T15:20:42;14.50;99.90
19172;DHT22;9718;52.200;21.052;2022-10-30T15:23:17;14.50;99.90
19172;DHT22;9718;52.200;21.052;2022-10-30T15:25:49;14.50;99.90
19172;DHT22;9718;52.200;21.052;2022-10-30T15:28:20;14.50;99.90
19172;DHT22;9718;52.200;21.052;2022-10-30T15:33:30;14.40;99.90
19172;DHT22;9718;52.200;21.052;2022-10-30T15:35:59;14.30;99.90
19172;DHT22;9718;52.200;21.052;2022-10-30T15:38:27;14.30;99.90
19172;DHT22;9718;52.200;21.052;2022-10-30T15:41:00;14.30;99.90
19172;DHT22;9718;52.200;21.052;2022-10-30T15:43:31;14.30;99.90
19172;DHT22;9718;52.200;21.052;2022-10-30T15:46:17;14.20;99.90
19172;DHT22;9718;52.200;21.052;2022-10-30T15:48:45;14.20;99.90
19172;DHT22;9718;52.200;21.052;2022-10-30T15:51:16;14.20;99.90
19172;DHT22;9718;52.200;21.052;2022-10-30T15:53:52;14.20;99.90
19172;DHT22;9718;52.200;21.052;2022-10-30T15:56:25;14.20;99.90
19172;DHT22;9718;52.200;21.052;2022-10-30T15:58:59;14.30;99.90
19172;DHT22;9718;52.200;21.052;2022-10-30T16:01:36;14.30;99.90
19172;DHT22;9718;52.200;21.052;2022-10-30T16:04:19;14.20;99.90
19172;DHT22;9718;52.200;21.052;2022-10-30T16:06:52;14.10;99.90
19172;DHT22;9718;52.200;21.052;2022-10-30T16:09:20;14.20;99.90
19172;DHT22;9718;52.200;21.052;2022-10-30T16:11:48;14.10;99.90
19172;DHT22;9718;52.200;21.052;2022-10-30T16:14:20;14.10;99.90
19172;DHT22;9718;52.200;21.052;2022-10-30T16:16:49;14.20;99.90
19172;DHT22;9718;52.200;21.052;2022-10-30T16:19:22;14.10;99.90
19172;DHT22;9718;52.200;21.052;2022-10-30T16:21:56;14.10;99.90
19172;DHT22;9718;52.200;21.052;2022-10-30T16:24:30;14.10;99.90
19172;DHT22;9718;52.200;21.052;2022-10-30T16:27:18;14.00;99.90
19172;DHT22;9718;52.200;21.052;2022-10-30T16:30:02;13.90;99.90
19172;DHT22;9718;52.200;21.052;2022-10-30T16:32:31;13.80;99.90
19172;DHT22;9718;52.200;21.052;2022-10-30T16:35:02;13.70;99.90
19172;DHT22;9718;52.200;21.052;2022-10-30T16:37:35;13.60;99.90
19172;DHT22;9718;52.200;21.052;2022-10-30T16:40:15;13.50;99.90
19172;DHT22;9718;52.200;21.052;2022-10-30T16:42:50;13.50;99.90
19172;DHT22;9718;52.200;21.052;2022-10-30T16:48:15;13.20;99.90
19172;DHT22;9718;52.200;21.052;2022-10-30T16:51:04;13.20;99.90
19172;DHT22;9718;52.200;21.052;2022-10-30T16:53:33;13.20;99.90
19172;DHT22;9718;52.200;21.052;2022-10-30T16:56:00;13.20;99.90
19172;DHT22;9718;52.200;21.052;2022-10-30T16:58:29;13.20;99.90
19172;DHT22;9718;52.200;21.052;2022-10-30T17:01:03;13.20;99.90
19172;DHT22;9718;52.200;21.052;2022-10-30T17:03:35;13.10;99.90
19172;DHT22;9718;52.200;21.052;2022-10-30T17:06:23;13.00;99.90
19172;DHT22;9718;52.200;21.052;2022-10-30T17:08:53;12.80;99.90
19172;DHT22;9718;52.200;21.052;2022-10-30T17:11:43;12.60;99.90
19172;DHT22;9718;52.200;21.052;2022-10-30T17:14:20;12.60;99.90
19172;DHT22;9718;52.200;21.052;2022-10-30T17:22:00;12.50;99.90
19172;DHT22;9718;52.200;21.052;2022-10-30T17:27:13;12.60;99.90
19172;DHT22;9718;52.200;21.052;2022-10-30T17:29:49;12.50;99.90
19172;DHT22;9718;52.200;21.052;2022-10-30T17:34:59;12.60;99.90
19172;DHT22;9718;52.200;21.052;2022-10-30T17:37:27;12.50;99.90
19172;DHT22;9718;52.200;21.052;2022-10-30T17:39:54;12.50;99.90
19172;DHT22;9718;52.200;21.052;2022-10-30T17:42:22;12.40;99.90
19172;DHT22;9718;52.200;21.052;2022-10-30T17:44:49;12.30;99.90
19172;DHT22;9718;52.200;21.052;2022-10-30T17:47:17;12.20;99.90
19172;DHT22;9718;52.200;21.052;2022-10-30T17:49:46;12.10;99.90
19172;DHT22;9718;52.200;21.052;2022-10-30T17:52:17;12.00;99.90
19172;DHT22;9718;52.200;21.052;2022-10-30T17:54:46;12.00;99.90
19172;DHT22;9718;52.200;21.052;2022-10-30T17:57:14;12.00;99.90
19172;DHT22;9718;52.200;21.052;2022-10-30T17:59:42;11.90;99.90
19172;DHT22;9718;52.200;21.052;2022-10-30T18:02:18;11.90;99.90
19172;DHT22;9718;52.200;21.052;2022-10-30T18:04:48;11.90;99.90
19172;DHT22;9718;52.200;21.052;2022-10-30T18:07:16;11.80;99.90
19172;DHT22;9718;52.200;21.052;2022-10-30T18:09:43;11.80;99.90
19172;DHT22;9718;52.200;21.052;2022-10-30T18:12:13;11.80;99.90
19172;DHT22;9718;52.200;21.052;2022-10-30T18:14:41;11.80;99.90
19172;DHT22;9718;52.200;21.052;2022-10-30T18:17:09;11.80;99.90
19172;DHT22;9718;52.200;21.052;2022-10-30T18:19:37;11.80;99.90
19172;DHT22;9718;52.200;21.052;2022-10-30T18:22:08;11.80;99.90
19172;DHT22;9718;52.200;21.052;2022-10-30T18:24:35;11.80;99.90
19172;DHT22;9718;52.200;21.052;2022-10-30T18:27:02;11.70;99.90